createdAt,value
2023-04-27T00:01:44.823Z,42.46
2023-04-27T00:04:14.429Z,42.54
2023-04-27T00:06:42.864Z,42.45
2023-04-27T00:09:10.273Z,42.21
2023-04-27T00:11:38.025Z,42.45
2023-04-27T00:14:05.761Z,42.26
2023-04-27T00:16:33.244Z,42.04
2023-04-27T00:19:01.009Z,41.86
2023-04-27T00:21:28.528Z,42.03
2023-04-27T00:23:56.513Z,42.06
2023-04-27T00:26:24.255Z,41.87
2023-04-27T00:28:51.884Z,41.90
2023-04-27T00:31:19.285Z,41.63
2023-04-27T00:33:46.976Z,42.01
2023-04-27T00:36:16.696Z,41.73
2023-04-27T00:38:44.148Z,41.90
2023-04-27T00:41:11.877Z,41.99
2023-04-27T00:43:44.331Z,42.18
2023-04-27T00:46:13.314Z,41.89
2023-04-27T00:48:41.893Z,42.25
2023-04-27T00:51:10.601Z,42.37
2023-04-27T00:53:38.798Z,42.39
2023-04-27T00:56:07.118Z,43.06
2023-04-27T00:58:34.773Z,43.77
2023-04-27T01:01:03.776Z,44.17
2023-04-27T01:03:31.588Z,44.08
2023-04-27T01:06:01.800Z,44.17
2023-04-27T01:08:29.877Z,44.65
2023-04-27T01:10:57.520Z,44.62
2023-04-27T01:13:25.013Z,44.22
2023-04-27T01:15:52.730Z,44.11
2023-04-27T01:18:20.102Z,44.31
2023-04-27T01:20:47.913Z,44.83
2023-04-27T01:23:17.346Z,45.31
2023-04-27T01:25:45.064Z,45.60
2023-04-27T01:28:12.792Z,45.50
2023-04-27T01:30:40.563Z,45.52
2023-04-27T01:33:08.003Z,45.23
2023-04-27T01:35:35.515Z,45.30
2023-04-27T01:38:03.290Z,45.07
2023-04-27T01:40:30.828Z,45.00
2023-04-27T01:42:58.277Z,45.06
2023-04-27T01:45:26.205Z,45.30
2023-04-27T01:47:53.854Z,45.94
2023-04-27T01:50:21.581Z,46.11
2023-04-27T01:52:49.367Z,46.29
2023-04-27T01:55:16.886Z,46.22
2023-04-27T01:57:44.362Z,46.04
2023-04-27T02:00:12.804Z,46.14
2023-04-27T02:02:48.054Z,46.25
2023-04-27T02:05:15.908Z,46.21
2023-04-27T02:07:43.314Z,46.51
2023-04-27T02:10:10.992Z,47.09
2023-04-27T02:12:38.624Z,46.99
2023-04-27T02:15:08.691Z,46.97
2023-04-27T02:17:36.490Z,46.73
2023-04-27T02:20:06.767Z,47.00
2023-04-27T02:22:34.237Z,47.18
2023-04-27T02:25:03.027Z,47.04
2023-04-27T02:27:30.535Z,47.62
2023-04-27T02:29:58.574Z,47.58
2023-04-27T02:32:27.192Z,47.55
2023-04-27T02:34:55.384Z,47.57
2023-04-27T02:37:22.914Z,47.41
2023-04-27T02:39:50.635Z,47.55
2023-04-27T02:42:18.495Z,46.87
2023-04-27T02:44:46.193Z,47.12
2023-04-27T02:47:14.026Z,47.55
2023-04-27T02:49:43.604Z,47.70
2023-04-27T02:52:11.016Z,47.40
2023-04-27T02:54:39.345Z,47.23
2023-04-27T02:57:07.150Z,47.67
2023-04-27T02:59:34.591Z,47.68
2023-04-27T03:02:02.022Z,47.75
2023-04-27T03:04:30.028Z,47.73
2023-04-27T03:06:57.444Z,47.67
2023-04-27T03:09:25.146Z,48.01
2023-04-27T03:11:52.879Z,48.05
2023-04-27T03:14:21.263Z,48.08
2023-04-27T03:16:48.959Z,48.07
2023-04-27T03:19:16.667Z,48.13
2023-04-27T03:21:44.409Z,48.37
2023-04-27T03:24:11.766Z,48.03
2023-04-27T03:26:39.457Z,48.43
2023-04-27T03:29:06.887Z,48.84
2023-04-27T03:31:34.532Z,49.37
2023-04-27T03:34:02.303Z,49.16
2023-04-27T03:36:30.047Z,48.82
2023-04-27T03:38:57.540Z,49.44
2023-04-27T03:41:25.681Z,49.43
2023-04-27T03:43:53.540Z,48.94
2023-04-27T03:46:21.295Z,49.06
2023-04-27T03:48:49.409Z,49.49
2023-04-27T03:51:18.296Z,48.87
2023-04-27T03:53:46.388Z,49.08
2023-04-27T03:56:14.430Z,49.30
2023-04-27T03:58:41.999Z,49.16
2023-04-27T04:01:11.592Z,49.06
2023-04-27T04:03:39.475Z,48.83
2023-04-27T04:06:07.324Z,48.76
2023-04-27T04:08:34.834Z,49.08
2023-04-27T04:11:02.735Z,49.27
2023-04-27T04:13:30.336Z,49.30
2023-04-27T04:16:05.022Z,49.25
2023-04-27T04:18:33.826Z,48.81
2023-04-27T04:21:02.216Z,48.90
2023-04-27T04:23:29.669Z,49.12
2023-04-27T04:25:58.146Z,48.95
2023-04-27T04:28:25.848Z,48.63
2023-04-27T04:30:53.318Z,48.77
2023-04-27T04:33:21.474Z,49.28
2023-04-27T04:35:49.442Z,48.41
2023-04-27T04:38:16.879Z,49.11
2023-04-27T04:40:45.967Z,48.34
2023-04-27T04:43:13.691Z,48.35
2023-04-27T04:45:42.738Z,47.73
2023-04-27T04:48:14.638Z,47.61
2023-04-27T04:50:42.201Z,47.47
2023-04-27T04:53:09.999Z,47.50
2023-04-27T04:55:37.568Z,47.87
2023-04-27T04:58:05.291Z,47.79
2023-04-27T05:00:32.949Z,47.47
2023-04-27T05:03:01.665Z,47.22
2023-04-27T05:05:29.230Z,46.71
2023-04-27T05:07:57.041Z,46.52
2023-04-27T05:10:24.505Z,46.74
2023-04-27T05:12:51.894Z,47.24
2023-04-27T05:15:19.917Z,47.23
2023-04-27T05:17:47.322Z,46.46
2023-04-27T05:20:15.873Z,46.18
2023-04-27T05:22:43.790Z,45.64
2023-04-27T05:25:11.368Z,44.64
2023-04-27T05:27:38.726Z,44.66
2023-04-27T05:30:07.905Z,44.31
2023-04-27T05:32:37.408Z,44.37
2023-04-27T05:35:05.621Z,44.97
2023-04-27T05:37:33.325Z,44.90
2023-04-27T05:40:00.786Z,43.33
2023-04-27T05:42:28.205Z,43.07
2023-04-27T05:44:56.027Z,42.28
2023-04-27T05:47:23.721Z,42.00
2023-04-27T05:49:54.499Z,43.92
2023-04-27T05:52:22.318Z,43.44
2023-04-27T05:54:50.820Z,43.18
2023-04-27T05:57:18.491Z,41.28
2023-04-27T05:59:46.261Z,40.29
2023-04-27T06:02:13.746Z,40.19
2023-04-27T06:04:41.483Z,40.68
2023-04-27T06:07:10.391Z,40.65
2023-04-27T06:09:38.360Z,38.74
2023-04-27T06:12:07.244Z,37.58
2023-04-27T06:14:37.225Z,38.92
2023-04-27T06:17:04.909Z,38.91
2023-04-27T06:19:32.616Z,39.08
2023-04-27T06:21:59.991Z,38.61
2023-04-27T06:24:28.609Z,38.00
2023-04-27T06:26:56.953Z,52.83
2023-04-27T06:29:24.350Z,40.90
2023-04-27T06:31:51.872Z,36.99
2023-04-27T06:34:19.817Z,34.15
2023-04-27T06:36:47.252Z,32.15
2023-04-27T06:39:14.889Z,32.83
2023-04-27T06:41:42.782Z,32.99
2023-04-27T06:44:13.146Z,31.69
2023-04-27T06:46:40.554Z,30.90
2023-04-27T06:49:08.286Z,30.62
2023-04-27T06:51:35.770Z,30.33
2023-04-27T06:54:03.865Z,30.37
2023-04-27T06:56:31.730Z,28.93
2023-04-27T06:58:59.541Z,29.41
2023-04-27T07:01:26.990Z,28.95
2023-04-27T07:03:54.960Z,29.28
2023-04-27T07:06:22.745Z,33.21
2023-04-27T07:08:50.098Z,35.91
2023-04-27T07:11:17.902Z,27.70
2023-04-27T07:13:45.554Z,25.43
2023-04-27T07:16:13.277Z,25.24
2023-04-27T07:18:43.185Z,25.73
2023-04-27T07:21:11.399Z,24.52
2023-04-27T07:23:40.842Z,25.71
2023-04-27T07:26:09.737Z,25.49
2023-04-27T07:28:38.215Z,24.24
2023-04-27T07:31:06.363Z,25.44
2023-04-27T07:33:34.587Z,24.19
2023-04-27T07:36:02.699Z,24.71
2023-04-27T07:38:31.214Z,24.62
2023-04-27T07:41:01.776Z,24.22
2023-04-27T07:43:29.783Z,24.53
2023-04-27T07:45:58.419Z,24.62
2023-04-27T07:48:26.360Z,26.17
2023-04-27T07:50:53.887Z,26.49
2023-04-27T07:53:21.339Z,25.85
2023-04-27T07:55:49.006Z,25.52
2023-04-27T07:58:16.444Z,25.29
2023-04-27T08:00:43.946Z,24.82
2023-04-27T08:03:11.895Z,24.23
2023-04-27T08:05:39.839Z,25.16
2023-04-27T08:08:08.052Z,25.55
2023-04-27T08:10:37.113Z,25.49
2023-04-27T08:13:04.491Z,24.99
2023-04-27T08:15:32.009Z,25.03
2023-04-27T08:17:59.868Z,25.72
2023-04-27T08:20:30.747Z,24.47
2023-04-27T08:22:58.228Z,25.65
2023-04-27T08:25:26.357Z,26.38
2023-04-27T08:27:53.778Z,25.07
2023-04-27T08:30:21.292Z,26.65
2023-04-27T08:32:49.664Z,26.72
2023-04-27T08:35:17.706Z,25.72
2023-04-27T08:37:45.137Z,27.32
2023-04-27T08:40:13.388Z,27.59
2023-04-27T08:42:52.464Z,26.68
2023-04-27T08:45:24.418Z,27.66
2023-04-27T08:47:52.430Z,26.26
2023-04-27T08:50:21.490Z,26.39
2023-04-27T08:52:50.734Z,26.32
2023-04-27T08:55:18.166Z,25.98
2023-04-27T08:57:58.673Z,25.91
2023-04-27T09:00:26.869Z,24.72
2023-04-27T09:02:54.873Z,24.79
2023-04-27T09:05:23.762Z,22.75
2023-04-27T09:08:05.449Z,23.27
2023-04-27T09:10:52.460Z,23.55
2023-04-27T09:13:19.913Z,24.98
2023-04-27T09:15:52.243Z,23.14
2023-04-27T09:18:23.526Z,23.25
2023-04-27T09:20:52.346Z,23.15
2023-04-27T09:23:26.428Z,23.17
2023-04-27T09:25:56.515Z,22.82
2023-04-27T09:28:26.086Z,23.75
2023-04-27T09:30:55.714Z,23.39
2023-04-27T09:33:27.727Z,22.22
2023-04-27T09:35:57.205Z,22.56
2023-04-27T09:38:24.771Z,22.66
2023-04-27T09:40:53.579Z,23.06
2023-04-27T09:43:22.001Z,23.11
2023-04-27T09:45:50.222Z,22.42
2023-04-27T09:48:18.550Z,25.11
2023-04-27T09:50:46.858Z,23.86
2023-04-27T09:53:18.748Z,24.26
2023-04-27T09:55:50.548Z,24.94
2023-04-27T09:58:45.237Z,24.53
2023-04-27T10:01:42.616Z,24.85
2023-04-27T10:05:04.865Z,25.48
2023-04-27T10:07:33.188Z,24.85
2023-04-27T10:10:02.695Z,24.94
2023-04-27T10:12:36.607Z,24.25
2023-04-27T10:15:15.374Z,22.65
2023-04-27T10:17:50.316Z,23.82
2023-04-27T10:20:29.071Z,22.58
2023-04-27T10:22:56.675Z,21.60
2023-04-27T10:25:40.762Z,23.53
2023-04-27T10:28:09.496Z,23.48
2023-04-27T10:30:39.279Z,22.57
2023-04-27T10:33:11.850Z,22.93
2023-04-27T10:35:41.099Z,23.37
2023-04-27T10:38:19.220Z,22.21
2023-04-27T10:40:55.981Z,23.43
2023-04-27T10:43:28.754Z,21.36
2023-04-27T10:46:11.749Z,23.12
2023-04-27T10:48:39.834Z,23.01
2023-04-27T10:51:07.699Z,24.26
2023-04-27T10:53:37.318Z,23.35
2023-04-27T10:56:06.992Z,22.89
2023-04-27T10:58:48.107Z,22.48
2023-04-27T11:01:26.951Z,22.93
2023-04-27T11:03:58.982Z,24.01
2023-04-27T11:06:28.127Z,24.45
2023-04-27T11:08:56.622Z,24.06
2023-04-27T11:11:24.319Z,23.78
2023-04-27T11:13:55.792Z,23.40
2023-04-27T11:16:24.050Z,23.93
2023-04-27T11:18:51.551Z,23.50
2023-04-27T11:21:20.565Z,23.71
2023-04-27T11:23:48.264Z,22.87
2023-04-27T11:26:20.089Z,22.66
2023-04-27T11:28:59.772Z,23.98
2023-04-27T11:31:28.271Z,23.85
2023-04-27T11:33:56.266Z,22.88
2023-04-27T11:36:24.396Z,24.30
2023-04-27T11:38:57.854Z,23.07
2023-04-27T11:41:36.234Z,22.77
2023-04-27T11:44:08.364Z,23.26
2023-04-27T11:46:36.866Z,23.96
2023-04-27T11:49:05.593Z,24.09
2023-04-27T11:51:33.535Z,23.91
2023-04-27T11:54:05.996Z,23.97
2023-04-27T11:56:41.480Z,25.30
2023-04-27T11:59:27.613Z,24.01
2023-04-27T12:01:55.043Z,24.28
2023-04-27T12:04:23.001Z,24.03
2023-04-27T12:06:51.110Z,24.04
2023-04-27T12:09:22.567Z,23.74
2023-04-27T12:11:50.324Z,25.39
2023-04-27T12:14:19.859Z,23.01
2023-04-27T12:16:47.340Z,24.26
2023-04-27T12:19:15.065Z,23.66
2023-04-27T12:21:42.785Z,23.38
2023-04-27T12:24:10.449Z,23.97
2023-04-27T12:26:38.563Z,23.40
2023-04-27T12:29:07.224Z,22.84
2023-04-27T12:31:34.782Z,23.14
2023-04-27T12:34:02.529Z,22.69
2023-04-27T12:36:29.972Z,22.42
2023-04-27T12:39:13.708Z,23.54
2023-04-27T12:41:43.512Z,23.90
2023-04-27T12:44:12.902Z,24.08
2023-04-27T12:46:41.627Z,23.28
2023-04-27T12:49:09.992Z,24.02
2023-04-27T12:51:37.627Z,24.47
2023-04-27T12:54:06.599Z,25.09
2023-04-27T12:56:34.140Z,24.26
2023-04-27T12:59:01.647Z,27.53
2023-04-27T13:01:30.274Z,25.56
2023-04-27T13:04:07.280Z,26.26
2023-04-27T13:06:35.141Z,25.57
2023-04-27T13:09:02.776Z,24.97
2023-04-27T13:11:30.251Z,24.14
2023-04-27T13:13:59.027Z,24.12
2023-04-27T13:16:26.542Z,24.82
2023-04-27T13:18:55.459Z,25.08
2023-04-27T13:21:23.316Z,23.97
2023-04-27T13:23:53.620Z,24.44
2023-04-27T13:26:21.170Z,24.90
2023-04-27T13:28:49.782Z,25.74
2023-04-27T13:31:17.311Z,22.08
2023-04-27T13:33:45.151Z,23.73
2023-04-27T13:36:13.424Z,24.31
2023-04-27T13:38:41.083Z,23.77
2023-04-27T13:41:08.765Z,24.22
2023-04-27T13:43:36.562Z,23.53
2023-04-27T13:46:03.983Z,24.08
2023-04-27T13:48:31.968Z,23.80
2023-04-27T13:50:59.660Z,24.80
2023-04-27T13:53:27.267Z,23.17
2023-04-27T13:55:56.016Z,23.38
2023-04-27T13:58:26.109Z,24.62
2023-04-27T14:00:54.152Z,23.74
2023-04-27T14:03:22.849Z,23.29
2023-04-27T14:05:53.573Z,23.34
2023-04-27T14:08:21.729Z,24.34
2023-04-27T14:10:49.647Z,24.33
2023-04-27T14:13:18.401Z,22.48
2023-04-27T14:15:46.747Z,23.08
2023-04-27T14:18:14.521Z,22.49
2023-04-27T14:20:42.337Z,22.23
2023-04-27T14:23:10.830Z,22.81
2023-04-27T14:25:39.188Z,22.60
2023-04-27T14:28:06.730Z,23.15
2023-04-27T14:30:35.434Z,24.56
2023-04-27T14:33:03.389Z,23.83
2023-04-27T14:35:34.105Z,25.31
2023-04-27T14:38:04.377Z,23.01
2023-04-27T14:40:32.459Z,22.97
2023-04-27T14:42:59.868Z,23.78
2023-04-27T14:45:33.565Z,24.96
2023-04-27T14:48:07.781Z,24.68
2023-04-27T14:50:36.006Z,22.74
2023-04-27T14:53:03.445Z,23.78
2023-04-27T14:55:31.528Z,23.37
2023-04-27T14:57:58.895Z,23.20
2023-04-27T15:00:26.368Z,23.77
2023-04-27T15:02:54.945Z,26.88
2023-04-27T15:05:22.693Z,24.11
2023-04-27T15:07:50.447Z,22.76
2023-04-27T15:10:18.276Z,22.98
2023-04-27T15:12:45.984Z,23.19
2023-04-27T15:15:13.543Z,23.78
2023-04-27T15:17:41.742Z,24.15
2023-04-27T15:20:10.741Z,23.76
2023-04-27T15:22:38.179Z,23.54
2023-04-27T15:25:06.293Z,23.17
2023-04-27T15:27:33.740Z,23.05
2023-04-27T15:30:03.772Z,23.27
2023-04-27T15:32:31.900Z,23.89
2023-04-27T15:34:59.503Z,23.86
2023-04-27T15:37:28.178Z,24.25
2023-04-27T15:39:56.222Z,23.82
2023-04-27T15:42:24.285Z,23.59
2023-04-27T15:44:51.898Z,25.38
2023-04-27T15:47:19.647Z,24.77
2023-04-27T15:49:56.982Z,24.41
2023-04-27T15:52:26.962Z,24.54
2023-04-27T15:54:54.997Z,23.38
2023-04-27T15:57:22.463Z,24.13
2023-04-27T15:59:50.181Z,24.71
2023-04-27T16:02:18.405Z,24.77
2023-04-27T16:04:46.154Z,24.59
2023-04-27T16:07:13.562Z,25.12
2023-04-27T16:09:41.116Z,24.73
2023-04-27T16:12:08.883Z,24.91
2023-04-27T16:14:36.300Z,24.09
2023-04-27T16:17:03.938Z,24.20
2023-04-27T16:19:31.733Z,24.86
2023-04-27T16:22:01.240Z,24.98
2023-04-27T16:24:29.584Z,25.15
2023-04-27T16:26:57.587Z,24.74
2023-04-27T16:29:25.045Z,24.97
2023-04-27T16:31:53.330Z,25.95
2023-04-27T16:34:21.114Z,24.46
2023-04-27T16:36:49.831Z,24.95
2023-04-27T16:39:19.231Z,24.52
2023-04-27T16:41:47.946Z,25.78
2023-04-27T16:44:15.798Z,25.55
2023-04-27T16:46:43.395Z,25.17
2023-04-27T16:49:11.204Z,25.05
2023-04-27T16:51:38.679Z,25.65
2023-04-27T16:54:06.078Z,33.17
2023-04-27T16:56:35.442Z,27.01
2023-04-27T16:59:04.937Z,25.54
2023-04-27T17:01:32.455Z,25.57
2023-04-27T17:04:02.295Z,25.08
2023-04-27T17:06:30.250Z,24.91
2023-04-27T17:08:58.048Z,24.42
2023-04-27T17:11:26.462Z,24.55
2023-04-27T17:13:54.338Z,25.36
2023-04-27T17:16:22.079Z,25.36
2023-04-27T17:18:50.005Z,25.03
2023-04-27T17:21:17.536Z,25.57
2023-04-27T17:23:50.528Z,25.42
2023-04-27T17:26:21.317Z,25.74
2023-04-27T17:28:49.274Z,25.94
2023-04-27T17:31:17.683Z,26.51
2023-04-27T17:33:45.857Z,25.86
2023-04-27T17:36:14.914Z,25.92
2023-04-27T17:38:42.440Z,26.30
2023-04-27T17:41:10.219Z,26.20
2023-04-27T17:43:38.058Z,26.63
2023-04-27T17:46:09.792Z,26.53
2023-04-27T17:48:37.928Z,26.90
2023-04-27T17:51:05.445Z,27.07
2023-04-27T17:53:33.152Z,27.70
2023-04-27T17:56:00.851Z,28.13
2023-04-27T17:58:28.256Z,28.34
2023-04-27T18:00:55.714Z,28.70
2023-04-27T18:03:23.715Z,29.18
2023-04-27T18:05:51.640Z,29.42
2023-04-27T18:08:19.058Z,29.88
2023-04-27T18:10:46.790Z,30.42
2023-04-27T18:13:14.165Z,30.85
2023-04-27T18:15:41.721Z,31.14
2023-04-27T18:18:10.938Z,30.87
2023-04-27T18:20:38.479Z,31.17
2023-04-27T18:23:06.033Z,31.63
2023-04-27T18:25:33.856Z,32.13
2023-04-27T18:28:01.564Z,32.76
2023-04-27T18:30:30.918Z,32.88
2023-04-27T18:32:58.679Z,33.07
2023-04-27T18:35:26.142Z,33.47
2023-04-27T18:37:53.544Z,34.04
2023-04-27T18:40:22.419Z,34.36
2023-04-27T18:42:53.553Z,34.41
2023-04-27T18:45:21.594Z,34.98
2023-04-27T18:47:49.077Z,35.53
2023-04-27T18:50:17.428Z,35.52
2023-04-27T18:52:45.614Z,35.62
2023-04-27T18:55:14.216Z,35.93
2023-04-27T18:57:41.886Z,35.97
2023-04-27T19:00:11.804Z,36.55
2023-04-27T19:02:39.638Z,36.65
2023-04-27T19:05:12.868Z,36.84
2023-04-27T19:07:41.261Z,36.95
2023-04-27T19:10:09.352Z,37.09
2023-04-27T19:12:36.796Z,37.56
2023-04-27T19:15:04.882Z,37.79
2023-04-27T19:17:32.536Z,37.61
2023-04-27T19:20:00.015Z,37.60
2023-04-27T19:22:29.277Z,37.48
2023-04-27T19:24:56.710Z,37.65
2023-04-27T19:27:24.383Z,37.96
2023-04-27T19:29:54.510Z,38.19
2023-04-27T19:32:25.137Z,38.29
2023-04-27T19:34:56.525Z,38.47
2023-04-27T19:37:25.050Z,38.72
2023-04-27T19:39:53.339Z,39.55
2023-04-27T19:42:20.880Z,39.33
2023-04-27T19:44:48.328Z,38.98
2023-04-27T19:47:16.179Z,38.94
2023-04-27T19:49:43.685Z,38.67
2023-04-27T19:52:11.327Z,45.06
2023-04-27T19:55:00.292Z,40.13
2023-04-27T19:57:28.881Z,39.46
2023-04-27T19:59:57.139Z,39.00
2023-04-27T20:02:24.999Z,39.04
2023-04-27T20:04:52.968Z,38.84
2023-04-27T20:07:21.039Z,39.14
2023-04-27T20:09:48.514Z,39.13
2023-04-27T20:12:35.253Z,39.09
2023-04-27T20:15:05.306Z,39.16
2023-04-27T20:17:33.307Z,39.18
2023-04-27T20:20:01.274Z,39.16
2023-04-27T20:22:28.701Z,39.16
2023-04-27T20:24:59.169Z,39.23
2023-04-27T20:27:26.735Z,39.24
2023-04-27T20:29:54.151Z,39.25
2023-04-27T20:32:21.930Z,39.69
2023-04-27T20:34:49.353Z,39.54
2023-04-27T20:37:19.571Z,39.70
2023-04-27T20:39:47.538Z,39.73
2023-04-27T20:42:14.986Z,39.67
2023-04-27T20:44:42.469Z,39.96
2023-04-27T20:47:10.162Z,40.13
2023-04-27T20:49:37.602Z,40.44
2023-04-27T20:52:05.082Z,40.26
2023-04-27T20:54:32.978Z,40.09
2023-04-27T20:57:08.425Z,40.98
2023-04-27T20:59:36.262Z,41.09
2023-04-27T21:02:03.756Z,41.01
2023-04-27T21:04:31.301Z,41.29
2023-04-27T21:06:59.177Z,41.65
2023-04-27T21:09:26.584Z,41.46
2023-04-27T21:11:54.221Z,41.21
2023-04-27T21:14:21.995Z,41.46
2023-04-27T21:16:49.588Z,41.66
2023-04-27T21:19:17.564Z,41.78
2023-04-27T21:21:45.325Z,41.56
2023-04-27T21:24:12.792Z,41.69
2023-04-27T21:26:40.255Z,41.41
2023-04-27T21:29:08.389Z,41.56
2023-04-27T21:31:36.228Z,41.28
2023-04-27T21:34:03.935Z,41.54
2023-04-27T21:36:32.412Z,41.37
2023-04-27T21:38:59.815Z,41.62
2023-04-27T21:41:27.569Z,41.88
2023-04-27T21:43:55.434Z,41.38
2023-04-27T21:46:24.038Z,41.56
2023-04-27T21:48:51.638Z,41.74
2023-04-27T21:51:19.468Z,41.72
2023-04-27T21:53:47.093Z,41.62
2023-04-27T21:56:14.568Z,41.90
2023-04-27T21:58:42.277Z,41.89
2023-04-27T22:01:11.189Z,41.65
2023-04-27T22:03:39.341Z,41.41
2023-04-27T22:06:07.541Z,41.53
2023-04-27T22:08:35.316Z,41.73
2023-04-27T22:11:03.038Z,41.82
2023-04-27T22:13:30.585Z,41.91
2023-04-27T22:15:58.095Z,42.29
2023-04-27T22:18:25.905Z,42.49
2023-04-27T22:20:54.901Z,42.73
2023-04-27T22:23:22.298Z,42.38
2023-04-27T22:25:49.964Z,42.81
2023-04-27T22:28:17.430Z,42.89
2023-04-27T22:30:44.864Z,42.66
2023-04-27T22:33:24.723Z,42.50
2023-04-27T22:35:52.098Z,42.69
2023-04-27T22:38:19.773Z,42.79
2023-04-27T22:40:47.286Z,43.04
2023-04-27T22:43:14.806Z,43.65
2023-04-27T22:45:42.522Z,44.26
2023-04-27T22:48:10.078Z,43.99
2023-04-27T22:50:37.800Z,43.56
2023-04-27T22:53:05.497Z,43.47
2023-04-27T22:55:32.877Z,43.50
2023-04-27T22:58:00.540Z,43.64
2023-04-27T23:00:28.287Z,43.90
2023-04-27T23:02:55.921Z,44.32
2023-04-27T23:05:23.687Z,44.43
2023-04-27T23:07:51.772Z,44.28
2023-04-27T23:10:19.371Z,44.34
2023-04-27T23:12:56.961Z,44.50
2023-04-27T23:15:24.658Z,44.36
2023-04-27T23:17:52.097Z,44.37
2023-04-27T23:20:27.916Z,44.30
2023-04-27T23:22:57.036Z,44.53
2023-04-27T23:25:24.588Z,44.60
2023-04-27T23:27:52.902Z,44.69
2023-04-27T23:30:22.030Z,44.35
2023-04-27T23:32:49.505Z,44.45
2023-04-27T23:35:16.952Z,44.47
2023-04-27T23:37:44.950Z,44.30
2023-04-27T23:40:12.815Z,44.69
2023-04-27T23:42:40.212Z,43.96
2023-04-27T23:45:08.443Z,44.23
2023-04-27T23:47:35.896Z,44.22
2023-04-27T23:50:03.910Z,44.62
2023-04-27T23:52:32.110Z,44.64
2023-04-27T23:54:59.654Z,44.48
2023-04-27T23:57:27.039Z,44.11
2023-04-27T23:59:54.696Z,44.43
